< Typhoon 198913 1989 Season Typhoon 198915 >
Typhoon 198914 (NANCY)
General InformationTrack Information on Google MapsDetailed Wind InformationList of All Images || Disaster Info.ResourceGoogle EarthGE AnimationAtom FeedGeoJSON
Detalied Best Track (Time Zone = UTC)
Year Month Day Hour Lat. Long. Pressure (hPa) Wind (kt) Class Image Chart
1989 8 11 00 20.0 154.0 1004 0 2 Image Chart
1989 8 11 06 20.2 154.5 1004 0 2 Image Chart
1989 8 11 12 20.4 155.1 1004 0 2 Image Chart
1989 8 11 18 20.8 155.8 1000 0 2 Image Chart
1989 8 12 00 21.2 156.6 996 40 3 Image Chart
1989 8 12 06 21.6 157.3 992 45 3 Image Chart
1989 8 12 12 21.9 157.6 990 45 3 Image Chart
1989 8 12 18 22.3 157.7 990 45 3 Image Chart
1989 8 13 00 23.3 157.6 985 50 4 Image Chart
1989 8 13 06 24.7 157.0 980 55 4 Image Chart
1989 8 13 12 26.0 156.3 975 60 4 Image Chart
1989 8 13 18 27.3 155.5 970 65 5 Image Chart
1989 8 14 00 29.1 154.1 965 70 5 Image Chart
1989 8 14 06 30.6 151.8 965 70 5 Image Chart
1989 8 14 12 31.8 150.1 965 70 5 Image Chart
1989 8 14 18 33.0 148.5 965 70 5 Image Chart
1989 8 15 00 34.2 147.2 970 65 5 Image Chart
1989 8 15 06 35.7 146.3 970 65 5 Image Chart
1989 8 15 12 37.3 146.0 975 60 4 Image Chart
1989 8 15 18 39.0 145.8 980 55 4 Image Chart
1989 8 16 00 40.4 145.2 980 55 4 Image Chart
1989 8 16 06 41.5 144.9 985 50 4 Image Chart
1989 8 16 12 43.0 145.6 990 45 3 Image Chart
1989 8 16 18 43.9 146.5 992 45 3 Image Chart
1989 8 16 21 44.6 146.8 996 0 6 Image Chart
1989 8 17 00 45.0 147.0 1000 0 6 Image Chart
1989 8 17 06 45.5 147.0 1000 0 6 Image Chart
1989 8 17 12 46.0 147.0 1004 0 6 Image Chart
1989 8 17 18 46.5 147.5 1004 0 6 Image Chart
1989 8 18 00 47.0 147.5 1004 0 6 Image Chart
1989 8 18 06 47.5 148.0 1004 0 6 Image Chart
1989 8 18 12 48.0 149.0 1004 0 6 Image Chart
1989 8 18 18 48.5 150.0 1004 0 6 Image Chart
Japan Meteorological Agency Best Track Data | Correction Date : 1992-10-21
< Typhoon 198913 1989 Season Typhoon 198915 >

Help